createdAt,value
2022-09-22T00:05:26.321Z,100.00
2022-09-22T00:15:30.616Z,100.00
2022-09-22T00:25:54.726Z,100.00
2022-09-22T00:36:26.221Z,100.00
2022-09-22T00:47:04.276Z,100.00
2022-09-22T00:57:42.991Z,100.00
2022-09-22T01:08:18.430Z,100.00
2022-09-22T01:19:01.757Z,100.00
2022-09-22T01:29:51.384Z,100.00
2022-09-22T01:40:41.386Z,100.00
2022-09-22T01:51:28.113Z,100.00
2022-09-22T02:02:24.296Z,100.00
2022-09-22T02:12:43.003Z,100.00
2022-09-22T02:23:01.037Z,100.00
2022-09-22T02:33:28.014Z,100.00
2022-09-22T02:44:12.662Z,100.00
2022-09-22T02:54:34.614Z,100.00
2022-09-22T03:04:47.198Z,100.00
2022-09-22T03:14:55.593Z,100.00
2022-09-22T03:25:05.563Z,100.00
2022-09-22T03:35:34.348Z,100.00
2022-09-22T03:45:49.130Z,100.00
2022-09-22T03:55:53.277Z,100.00
2022-09-22T04:06:08.868Z,100.00
2022-09-22T04:16:47.254Z,100.00
2022-09-22T04:27:19.464Z,100.00
2022-09-22T04:37:48.628Z,100.00
2022-09-22T04:48:33.000Z,100.00
2022-09-22T04:58:41.013Z,100.00
2022-09-22T05:08:53.616Z,100.00
2022-09-22T05:19:23.831Z,100.00
2022-09-22T05:30:48.177Z,100.00
2022-09-22T05:41:08.935Z,100.00
2022-09-22T05:51:46.926Z,100.00
2022-09-22T06:02:36.561Z,100.00
2022-09-22T06:13:11.355Z,100.00
2022-09-22T06:23:26.535Z,100.00
2022-09-22T06:34:08.513Z,100.00
2022-09-22T06:44:18.243Z,100.00
2022-09-22T06:54:53.076Z,100.00
2022-09-22T07:04:59.629Z,100.00
2022-09-22T07:15:18.081Z,100.00
2022-09-22T07:25:38.546Z,100.00
2022-09-22T07:35:44.896Z,100.00
2022-09-22T07:46:13.401Z,100.00
2022-09-22T07:56:29.190Z,100.00
2022-09-22T08:06:52.181Z,100.00
2022-09-22T08:17:37.494Z,100.00
2022-09-22T08:27:54.618Z,100.00
2022-09-22T08:38:03.661Z,100.00
2022-09-22T08:48:41.543Z,100.00
2022-09-22T08:59:06.355Z,99.83
2022-09-22T09:10:26.230Z,97.51
2022-09-22T09:20:41.688Z,95.97
2022-09-22T09:31:19.204Z,93.43
2022-09-22T09:41:59.587Z,89.47
2022-09-22T09:52:18.058Z,86.89
2022-09-22T10:02:47.563Z,84.44
2022-09-22T10:12:51.258Z,80.64
2022-09-22T10:22:56.551Z,77.17
2022-09-22T10:33:17.441Z,75.59
2022-09-22T10:43:39.856Z,75.30
2022-09-22T10:53:55.990Z,71.39
2022-09-22T11:04:20.810Z,71.43
2022-09-22T11:15:15.238Z,71.99
2022-09-22T11:26:07.708Z,70.50
2022-09-22T11:37:00.906Z,69.39
2022-09-22T11:47:12.318Z,69.35
2022-09-22T11:57:48.481Z,69.83
2022-09-22T12:08:06.068Z,72.50
2022-09-22T12:18:53.658Z,72.61
2022-09-22T12:29:02.980Z,71.62
2022-09-22T12:39:31.678Z,72.04
2022-09-22T12:50:22.651Z,71.51
2022-09-22T13:01:20.183Z,68.13
2022-09-22T13:12:18.325Z,67.45
2022-09-22T13:22:30.860Z,69.65
2022-09-22T13:32:49.638Z,71.17
2022-09-22T13:43:06.851Z,72.41
2022-09-22T13:53:20.040Z,73.88
2022-09-22T14:03:30.146Z,73.41
2022-09-22T14:14:22.255Z,72.76
2022-09-22T14:24:37.161Z,72.10
2022-09-22T14:34:59.617Z,71.86
2022-09-22T14:45:32.161Z,72.31
2022-09-22T14:55:47.595Z,73.32
2022-09-22T15:06:00.122Z,74.24
2022-09-22T15:16:44.417Z,74.72
2022-09-22T15:26:51.292Z,75.17
2022-09-22T15:37:02.637Z,75.44
2022-09-22T15:47:20.020Z,75.46
2022-09-22T15:57:26.060Z,75.46
2022-09-22T16:07:38.952Z,75.55
2022-09-22T16:17:49.360Z,75.67
2022-09-22T16:28:02.649Z,76.04
2022-09-22T16:38:31.926Z,76.71
2022-09-22T16:48:52.685Z,77.70
2022-09-22T16:59:20.955Z,79.47
2022-09-22T17:09:41.105Z,80.04
2022-09-22T17:19:55.855Z,80.27
2022-09-22T17:30:17.763Z,80.16
2022-09-22T17:41:30.215Z,80.47
2022-09-22T17:52:28.294Z,80.53
2022-09-22T18:03:29.450Z,80.97
2022-09-22T18:13:57.430Z,80.91
2022-09-22T18:24:24.490Z,80.88
2022-09-22T18:34:53.040Z,81.32
2022-09-22T18:45:05.807Z,81.52
2022-09-22T18:55:19.213Z,82.41
2022-09-22T19:05:38.246Z,82.93
2022-09-22T19:16:05.085Z,83.38
2022-09-22T19:26:11.782Z,84.09
2022-09-22T19:36:19.841Z,84.64
2022-09-22T19:46:57.981Z,85.21
2022-09-22T19:57:32.130Z,86.11
2022-09-22T20:08:02.288Z,86.90
2022-09-22T20:18:21.655Z,87.85
2022-09-22T20:28:28.655Z,88.09
2022-09-22T20:39:14.067Z,88.30
2022-09-22T20:49:31.630Z,88.87
2022-09-22T20:59:58.714Z,89.53
2022-09-22T21:10:27.315Z,90.16
2022-09-22T21:20:49.407Z,91.18
2022-09-22T21:31:44.085Z,91.26
2022-09-22T21:42:45.263Z,91.59
2022-09-22T21:53:49.800Z,92.71
2022-09-22T22:04:20.280Z,93.29
2022-09-22T22:14:32.804Z,93.90
2022-09-22T22:24:42.496Z,93.73
2022-09-22T22:34:59.556Z,93.26
2022-09-22T22:45:42.881Z,92.74
2022-09-22T22:56:38.743Z,90.80
2022-09-22T23:07:48.804Z,92.03
2022-09-22T23:18:09.417Z,91.57
2022-09-22T23:28:26.485Z,91.82
2022-09-22T23:39:33.668Z,93.41
2022-09-22T23:50:38.286Z,95.76
